sensor_id;sensor_type;location;lat;lon;timestamp;P1;durP1;ratioP1;P2;durP2;ratioP2
12884;SDS011;6510;51.362;7.370;2022-09-24T00:03:38;9.10;;;5.57;;
12884;SDS011;6510;51.362;7.370;2022-09-24T00:06:05;7.17;;;5.30;;
12884;SDS011;6510;51.362;7.370;2022-09-24T00:08:31;7.00;;;5.73;;
12884;SDS011;6510;51.362;7.370;2022-09-24T00:11:00;6.73;;;5.53;;
12884;SDS011;6510;51.362;7.370;2022-09-24T00:13:28;6.93;;;5.50;;
12884;SDS011;6510;51.362;7.370;2022-09-24T00:15:53;6.47;;;5.27;;
12884;SDS011;6510;51.362;7.370;2022-09-24T00:18:19;8.10;;;5.43;;
12884;SDS011;6510;51.362;7.370;2022-09-24T00:20:46;8.00;;;5.90;;
12884;SDS011;6510;51.362;7.370;2022-09-24T00:23:11;7.93;;;5.60;;
12884;SDS011;6510;51.362;7.370;2022-09-24T00:25:41;9.83;;;5.93;;
12884;SDS011;6510;51.362;7.370;2022-09-24T00:28:26;6.37;;;5.37;;
12884;SDS011;6510;51.362;7.370;2022-09-24T00:30:52;6.57;;;5.70;;
12884;SDS011;6510;51.362;7.370;2022-09-24T00:33:19;8.60;;;5.87;;
12884;SDS011;6510;51.362;7.370;2022-09-24T00:35:45;8.47;;;5.30;;
12884;SDS011;6510;51.362;7.370;2022-09-24T00:38:11;6.97;;;5.83;;
12884;SDS011;6510;51.362;7.370;2022-09-24T00:40:36;8.23;;;6.00;;
12884;SDS011;6510;51.362;7.370;2022-09-24T00:45:54;6.87;;;5.70;;
12884;SDS011;6510;51.362;7.370;2022-09-24T00:48:28;6.83;;;5.77;;
12884;SDS011;6510;51.362;7.370;2022-09-24T00:50:54;9.10;;;5.97;;
12884;SDS011;6510;51.362;7.370;2022-09-24T00:53:20;7.77;;;5.93;;
12884;SDS011;6510;51.362;7.370;2022-09-24T00:55:48;10.07;;;6.17;;
12884;SDS011;6510;51.362;7.370;2022-09-24T00:58:18;12.97;;;6.77;;
12884;SDS011;6510;51.362;7.370;2022-09-24T01:00:44;7.63;;;6.80;;
12884;SDS011;6510;51.362;7.370;2022-09-24T01:03:11;11.03;;;6.40;;
12884;SDS011;6510;51.362;7.370;2022-09-24T01:05:40;7.50;;;5.97;;
12884;SDS011;6510;51.362;7.370;2022-09-24T01:08:06;8.23;;;6.10;;
12884;SDS011;6510;51.362;7.370;2022-09-24T01:13:46;10.00;;;5.87;;
12884;SDS011;6510;51.362;7.370;2022-09-24T01:22:17;6.63;;;5.17;;
12884;SDS011;6510;51.362;7.370;2022-09-24T01:25:00;7.83;;;5.97;;
12884;SDS011;6510;51.362;7.370;2022-09-24T01:30:06;7.50;;;5.30;;
12884;SDS011;6510;51.362;7.370;2022-09-24T01:32:45;6.53;;;5.37;;
12884;SDS011;6510;51.362;7.370;2022-09-24T01:38:02;7.20;;;5.50;;
12884;SDS011;6510;51.362;7.370;2022-09-24T01:40:35;7.27;;;5.30;;
12884;SDS011;6510;51.362;7.370;2022-09-24T01:43:03;7.63;;;5.77;;
12884;SDS011;6510;51.362;7.370;2022-09-24T01:45:32;8.80;;;5.80;;
12884;SDS011;6510;51.362;7.370;2022-09-24T01:48:02;8.50;;;5.83;;
12884;SDS011;6510;51.362;7.370;2022-09-24T01:50:31;8.80;;;5.77;;
12884;SDS011;6510;51.362;7.370;2022-09-24T01:53:10;5.97;;;5.40;;
12884;SDS011;6510;51.362;7.370;2022-09-24T01:55:48;6.43;;;5.63;;
12884;SDS011;6510;51.362;7.370;2022-09-24T01:58:22;9.70;;;5.33;;
12884;SDS011;6510;51.362;7.370;2022-09-24T02:00:52;10.03;;;6.43;;
12884;SDS011;6510;51.362;7.370;2022-09-24T02:03:24;7.33;;;5.73;;
12884;SDS011;6510;51.362;7.370;2022-09-24T02:06:02;7.23;;;5.60;;
12884;SDS011;6510;51.362;7.370;2022-09-24T02:08:38;6.93;;;5.60;;
12884;SDS011;6510;51.362;7.370;2022-09-24T02:13:50;7.77;;;5.70;;
12884;SDS011;6510;51.362;7.370;2022-09-24T02:16:32;6.10;;;5.30;;
12884;SDS011;6510;51.362;7.370;2022-09-24T02:19:02;7.33;;;5.60;;
12884;SDS011;6510;51.362;7.370;2022-09-24T02:21:33;5.97;;;5.37;;
12884;SDS011;6510;51.362;7.370;2022-09-24T02:24:04;7.97;;;5.93;;
12884;SDS011;6510;51.362;7.370;2022-09-24T02:26:43;6.67;;;5.90;;
12884;SDS011;6510;51.362;7.370;2022-09-24T02:29:10;6.50;;;5.90;;
12884;SDS011;6510;51.362;7.370;2022-09-24T02:31:37;7.97;;;6.20;;
12884;SDS011;6510;51.362;7.370;2022-09-24T02:34:09;7.43;;;5.77;;
12884;SDS011;6510;51.362;7.370;2022-09-24T02:36:45;7.27;;;5.80;;
12884;SDS011;6510;51.362;7.370;2022-09-24T02:39:15;8.10;;;5.70;;
12884;SDS011;6510;51.362;7.370;2022-09-24T02:41:42;8.27;;;6.37;;
12884;SDS011;6510;51.362;7.370;2022-09-24T02:44:11;6.83;;;5.87;;
12884;SDS011;6510;51.362;7.370;2022-09-24T02:46:40;8.40;;;6.23;;
12884;SDS011;6510;51.362;7.370;2022-09-24T02:49:07;8.53;;;6.43;;
12884;SDS011;6510;51.362;7.370;2022-09-24T02:51:34;8.63;;;6.20;;
12884;SDS011;6510;51.362;7.370;2022-09-24T02:54:00;6.93;;;6.23;;
12884;SDS011;6510;51.362;7.370;2022-09-24T02:56:26;8.20;;;6.23;;
12884;SDS011;6510;51.362;7.370;2022-09-24T02:58:52;7.37;;;6.60;;
12884;SDS011;6510;51.362;7.370;2022-09-24T03:01:18;10.30;;;5.87;;
12884;SDS011;6510;51.362;7.370;2022-09-24T03:03:43;8.47;;;6.97;;
12884;SDS011;6510;51.362;7.370;2022-09-24T03:06:09;7.70;;;6.20;;
12884;SDS011;6510;51.362;7.370;2022-09-24T03:08:37;9.60;;;6.40;;
12884;SDS011;6510;51.362;7.370;2022-09-24T03:11:03;7.80;;;6.20;;
12884;SDS011;6510;51.362;7.370;2022-09-24T03:13:29;10.37;;;6.57;;
12884;SDS011;6510;51.362;7.370;2022-09-24T03:15:55;8.37;;;6.03;;
12884;SDS011;6510;51.362;7.370;2022-09-24T03:18:20;7.70;;;6.13;;
12884;SDS011;6510;51.362;7.370;2022-09-24T03:20:53;10.17;;;6.60;;
12884;SDS011;6510;51.362;7.370;2022-09-24T03:23:22;9.17;;;6.60;;
12884;SDS011;6510;51.362;7.370;2022-09-24T03:25:48;9.70;;;5.97;;
12884;SDS011;6510;51.362;7.370;2022-09-24T03:28:14;12.10;;;6.60;;
12884;SDS011;6510;51.362;7.370;2022-09-24T03:30:40;7.17;;;6.30;;
12884;SDS011;6510;51.362;7.370;2022-09-24T03:35:58;9.37;;;7.40;;
12884;SDS011;6510;51.362;7.370;2022-09-24T03:38:25;11.37;;;7.67;;
12884;SDS011;6510;51.362;7.370;2022-09-24T03:40:51;10.80;;;8.03;;
12884;SDS011;6510;51.362;7.370;2022-09-24T03:43:17;12.33;;;7.67;;
12884;SDS011;6510;51.362;7.370;2022-09-24T03:45:43;9.73;;;8.30;;
12884;SDS011;6510;51.362;7.370;2022-09-24T03:48:09;10.20;;;8.20;;
12884;SDS011;6510;51.362;7.370;2022-09-24T03:50:35;12.23;;;8.57;;
12884;SDS011;6510;51.362;7.370;2022-09-24T03:53:01;10.63;;;8.97;;
12884;SDS011;6510;51.362;7.370;2022-09-24T03:55:27;10.90;;;8.47;;
12884;SDS011;6510;51.362;7.370;2022-09-24T03:57:52;12.23;;;9.03;;
12884;SDS011;6510;51.362;7.370;2022-09-24T04:00:18;10.50;;;8.50;;
12884;SDS011;6510;51.362;7.370;2022-09-24T04:02:43;9.67;;;8.10;;
12884;SDS011;6510;51.362;7.370;2022-09-24T04:05:10;11.57;;;8.80;;
12884;SDS011;6510;51.362;7.370;2022-09-24T04:07:35;11.60;;;8.27;;
12884;SDS011;6510;51.362;7.370;2022-09-24T04:10:01;10.40;;;9.00;;
12884;SDS011;6510;51.362;7.370;2022-09-24T04:12:27;11.13;;;9.30;;
12884;SDS011;6510;51.362;7.370;2022-09-24T04:14:53;11.77;;;9.30;;
12884;SDS011;6510;51.362;7.370;2022-09-24T04:17:19;12.83;;;8.57;;
12884;SDS011;6510;51.362;7.370;2022-09-24T04:19:44;11.50;;;8.50;;
12884;SDS011;6510;51.362;7.370;2022-09-24T04:22:10;10.60;;;8.00;;
12884;SDS011;6510;51.362;7.370;2022-09-24T04:24:36;8.63;;;7.33;;
12884;SDS011;6510;51.362;7.370;2022-09-24T04:27:01;8.27;;;6.93;;
12884;SDS011;6510;51.362;7.370;2022-09-24T04:29:27;10.10;;;7.70;;
12884;SDS011;6510;51.362;7.370;2022-09-24T04:31:53;9.87;;;6.90;;
12884;SDS011;6510;51.362;7.370;2022-09-24T04:34:18;10.73;;;7.53;;
12884;SDS011;6510;51.362;7.370;2022-09-24T04:36:45;9.90;;;7.73;;
12884;SDS011;6510;51.362;7.370;2022-09-24T04:39:10;10.33;;;8.47;;
12884;SDS011;6510;51.362;7.370;2022-09-24T04:41:37;11.47;;;8.90;;
12884;SDS011;6510;51.362;7.370;2022-09-24T04:44:04;12.03;;;8.20;;
12884;SDS011;6510;51.362;7.370;2022-09-24T04:46:29;10.73;;;8.40;;
12884;SDS011;6510;51.362;7.370;2022-09-24T04:48:58;14.50;;;8.50;;
12884;SDS011;6510;51.362;7.370;2022-09-24T04:51:24;10.50;;;8.43;;
12884;SDS011;6510;51.362;7.370;2022-09-24T04:53:50;15.43;;;8.83;;
12884;SDS011;6510;51.362;7.370;2022-09-24T04:56:15;11.43;;;8.37;;
12884;SDS011;6510;51.362;7.370;2022-09-24T04:58:41;14.27;;;8.73;;
12884;SDS011;6510;51.362;7.370;2022-09-24T05:01:08;10.63;;;8.23;;
12884;SDS011;6510;51.362;7.370;2022-09-24T05:03:34;10.53;;;8.60;;
12884;SDS011;6510;51.362;7.370;2022-09-24T05:06:00;11.83;;;8.70;;
12884;SDS011;6510;51.362;7.370;2022-09-24T05:08:26;12.47;;;8.30;;
12884;SDS011;6510;51.362;7.370;2022-09-24T05:10:51;8.70;;;7.80;;
12884;SDS011;6510;51.362;7.370;2022-09-24T05:13:18;10.83;;;7.90;;
12884;SDS011;6510;51.362;7.370;2022-09-24T05:15:43;10.17;;;7.97;;
12884;SDS011;6510;51.362;7.370;2022-09-24T05:18:09;10.23;;;7.70;;
12884;SDS011;6510;51.362;7.370;2022-09-24T05:20:34;8.83;;;7.70;;
12884;SDS011;6510;51.362;7.370;2022-09-24T05:23:00;10.23;;;8.33;;
12884;SDS011;6510;51.362;7.370;2022-09-24T05:25:26;10.33;;;7.93;;
12884;SDS011;6510;51.362;7.370;2022-09-24T05:27:53;11.30;;;8.73;;
12884;SDS011;6510;51.362;7.370;2022-09-24T05:30:19;10.17;;;8.37;;
12884;SDS011;6510;51.362;7.370;2022-09-24T05:32:47;10.97;;;8.40;;
12884;SDS011;6510;51.362;7.370;2022-09-24T05:35:17;13.47;;;8.70;;
12884;SDS011;6510;51.362;7.370;2022-09-24T05:37:47;12.13;;;8.53;;
12884;SDS011;6510;51.362;7.370;2022-09-24T05:40:17;10.60;;;8.37;;
12884;SDS011;6510;51.362;7.370;2022-09-24T05:43:02;10.47;;;7.93;;
12884;SDS011;6510;51.362;7.370;2022-09-24T05:45:29;9.53;;;7.73;;
12884;SDS011;6510;51.362;7.370;2022-09-24T05:47:55;8.63;;;7.43;;
12884;SDS011;6510;51.362;7.370;2022-09-24T05:50:20;10.67;;;8.30;;
12884;SDS011;6510;51.362;7.370;2022-09-24T05:52:46;12.03;;;8.70;;
12884;SDS011;6510;51.362;7.370;2022-09-24T05:55:12;12.43;;;8.40;;
12884;SDS011;6510;51.362;7.370;2022-09-24T05:57:38;10.63;;;8.20;;
12884;SDS011;6510;51.362;7.370;2022-09-24T06:00:04;10.90;;;8.53;;
12884;SDS011;6510;51.362;7.370;2022-09-24T06:02:30;9.63;;;8.67;;
12884;SDS011;6510;51.362;7.370;2022-09-24T06:04:56;9.23;;;8.20;;
12884;SDS011;6510;51.362;7.370;2022-09-24T06:07:22;11.37;;;9.80;;
12884;SDS011;6510;51.362;7.370;2022-09-24T06:09:47;11.37;;;9.20;;
12884;SDS011;6510;51.362;7.370;2022-09-24T06:12:13;11.00;;;8.60;;
12884;SDS011;6510;51.362;7.370;2022-09-24T06:14:39;9.27;;;8.30;;
12884;SDS011;6510;51.362;7.370;2022-09-24T06:17:06;12.00;;;8.43;;
12884;SDS011;6510;51.362;7.370;2022-09-24T06:19:32;10.93;;;8.57;;
12884;SDS011;6510;51.362;7.370;2022-09-24T06:21:58;9.60;;;8.10;;
12884;SDS011;6510;51.362;7.370;2022-09-24T06:24:24;10.83;;;8.80;;
12884;SDS011;6510;51.362;7.370;2022-09-24T06:26:49;10.90;;;8.87;;
12884;SDS011;6510;51.362;7.370;2022-09-24T06:29:16;10.47;;;8.23;;
12884;SDS011;6510;51.362;7.370;2022-09-24T06:31:41;11.03;;;7.70;;
12884;SDS011;6510;51.362;7.370;2022-09-24T06:34:08;10.07;;;8.20;;
12884;SDS011;6510;51.362;7.370;2022-09-24T06:36:34;9.90;;;8.13;;
12884;SDS011;6510;51.362;7.370;2022-09-24T06:38:59;10.07;;;8.37;;
12884;SDS011;6510;51.362;7.370;2022-09-24T06:41:25;11.63;;;8.30;;
12884;SDS011;6510;51.362;7.370;2022-09-24T06:43:54;9.10;;;8.20;;
12884;SDS011;6510;51.362;7.370;2022-09-24T06:46:20;12.33;;;9.03;;
12884;SDS011;6510;51.362;7.370;2022-09-24T06:48:47;11.17;;;9.30;;
12884;SDS011;6510;51.362;7.370;2022-09-24T06:51:13;10.27;;;8.77;;
12884;SDS011;6510;51.362;7.370;2022-09-24T06:53:39;9.73;;;7.67;;
12884;SDS011;6510;51.362;7.370;2022-09-24T06:56:12;11.60;;;8.40;;
12884;SDS011;6510;51.362;7.370;2022-09-24T06:59:05;10.53;;;7.90;;
12884;SDS011;6510;51.362;7.370;2022-09-24T07:01:32;11.47;;;8.83;;
12884;SDS011;6510;51.362;7.370;2022-09-24T07:03:58;11.23;;;8.97;;
12884;SDS011;6510;51.362;7.370;2022-09-24T07:06:24;12.33;;;10.80;;
12884;SDS011;6510;51.362;7.370;2022-09-24T07:08:50;27.47;;;22.60;;
12884;SDS011;6510;51.362;7.370;2022-09-24T07:11:15;12.40;;;11.00;;
12884;SDS011;6510;51.362;7.370;2022-09-24T07:13:41;11.87;;;10.60;;
12884;SDS011;6510;51.362;7.370;2022-09-24T07:16:06;13.17;;;10.87;;
12884;SDS011;6510;51.362;7.370;2022-09-24T07:18:32;12.53;;;10.73;;
12884;SDS011;6510;51.362;7.370;2022-09-24T07:20:58;13.30;;;11.23;;
12884;SDS011;6510;51.362;7.370;2022-09-24T07:23:23;17.43;;;11.60;;
12884;SDS011;6510;51.362;7.370;2022-09-24T07:25:49;16.33;;;11.23;;
12884;SDS011;6510;51.362;7.370;2022-09-24T07:28:19;14.87;;;11.20;;
12884;SDS011;6510;51.362;7.370;2022-09-24T07:30:44;17.63;;;11.40;;
12884;SDS011;6510;51.362;7.370;2022-09-24T07:33:10;18.30;;;11.73;;
12884;SDS011;6510;51.362;7.370;2022-09-24T07:35:36;15.57;;;11.00;;
12884;SDS011;6510;51.362;7.370;2022-09-24T07:38:04;12.20;;;10.00;;
12884;SDS011;6510;51.362;7.370;2022-09-24T07:40:38;11.30;;;9.60;;
12884;SDS011;6510;51.362;7.370;2022-09-24T07:43:04;11.90;;;10.03;;
12884;SDS011;6510;51.362;7.370;2022-09-24T07:45:30;13.10;;;10.67;;
12884;SDS011;6510;51.362;7.370;2022-09-24T07:47:58;14.47;;;11.30;;
12884;SDS011;6510;51.362;7.370;2022-09-24T07:50:25;13.23;;;11.20;;
12884;SDS011;6510;51.362;7.370;2022-09-24T07:52:52;14.87;;;11.07;;
12884;SDS011;6510;51.362;7.370;2022-09-24T07:55:18;15.47;;;11.13;;
12884;SDS011;6510;51.362;7.370;2022-09-24T07:57:47;15.67;;;11.10;;
12884;SDS011;6510;51.362;7.370;2022-09-24T08:00:14;16.80;;;11.20;;
12884;SDS011;6510;51.362;7.370;2022-09-24T08:02:41;14.07;;;11.30;;
12884;SDS011;6510;51.362;7.370;2022-09-24T08:05:08;12.33;;;10.50;;
12884;SDS011;6510;51.362;7.370;2022-09-24T08:07:34;13.03;;;10.77;;
12884;SDS011;6510;51.362;7.370;2022-09-24T08:09:59;12.20;;;10.03;;
12884;SDS011;6510;51.362;7.370;2022-09-24T08:12:25;14.23;;;10.07;;
12884;SDS011;6510;51.362;7.370;2022-09-24T08:14:54;14.97;;;10.30;;
12884;SDS011;6510;51.362;7.370;2022-09-24T08:17:20;13.40;;;10.77;;
12884;SDS011;6510;51.362;7.370;2022-09-24T08:19:45;15.70;;;11.13;;
12884;SDS011;6510;51.362;7.370;2022-09-24T08:22:11;13.33;;;9.73;;
12884;SDS011;6510;51.362;7.370;2022-09-24T08:24:40;11.83;;;10.40;;
12884;SDS011;6510;51.362;7.370;2022-09-24T08:27:06;14.07;;;9.88;;
12884;SDS011;6510;51.362;7.370;2022-09-24T08:29:32;10.05;;;8.90;;
12884;SDS011;6510;51.362;7.370;2022-09-24T08:31:58;11.13;;;8.60;;
12884;SDS011;6510;51.362;7.370;2022-09-24T08:34:24;9.15;;;7.68;;
12884;SDS011;6510;51.362;7.370;2022-09-24T08:36:50;10.93;;;8.52;;
12884;SDS011;6510;51.362;7.370;2022-09-24T08:39:16;9.38;;;7.97;;
12884;SDS011;6510;51.362;7.370;2022-09-24T08:44:17;9.48;;;8.50;;
12884;SDS011;6510;51.362;7.370;2022-09-24T08:47:10;11.15;;;8.85;;
12884;SDS011;6510;51.362;7.370;2022-09-24T08:55:33;9.57;;;8.63;;
12884;SDS011;6510;51.362;7.370;2022-09-24T09:12:03;10.93;;;8.23;;
12884;SDS011;6510;51.362;7.370;2022-09-24T09:14:37;8.70;;;7.43;;
12884;SDS011;6510;51.362;7.370;2022-09-24T09:17:28;7.95;;;7.25;;
12884;SDS011;6510;51.362;7.370;2022-09-24T09:20:06;10.73;;;8.00;;
12884;SDS011;6510;51.362;7.370;2022-09-24T09:22:44;9.17;;;7.23;;
12884;SDS011;6510;51.362;7.370;2022-09-24T09:25:17;10.90;;;8.10;;
12884;SDS011;6510;51.362;7.370;2022-09-24T09:27:45;11.97;;;7.93;;
12884;SDS011;6510;51.362;7.370;2022-09-24T09:30:15;12.13;;;8.87;;
12884;SDS011;6510;51.362;7.370;2022-09-24T09:35:34;10.60;;;8.50;;
12884;SDS011;6510;51.362;7.370;2022-09-24T09:38:31;10.83;;;8.67;;
12884;SDS011;6510;51.362;7.370;2022-09-24T09:41:16;12.33;;;8.33;;
12884;SDS011;6510;51.362;7.370;2022-09-24T09:43:53;10.67;;;7.70;;
12884;SDS011;6510;51.362;7.370;2022-09-24T09:46:26;8.97;;;7.47;;
12884;SDS011;6510;51.362;7.370;2022-09-24T09:48:59;9.27;;;7.03;;
12884;SDS011;6510;51.362;7.370;2022-09-24T09:51:42;7.50;;;6.70;;
12884;SDS011;6510;51.362;7.370;2022-09-24T09:54:12;8.20;;;7.13;;
12884;SDS011;6510;51.362;7.370;2022-09-24T09:56:41;8.97;;;8.07;;
12884;SDS011;6510;51.362;7.370;2022-09-24T09:59:18;8.23;;;7.43;;
12884;SDS011;6510;51.362;7.370;2022-09-24T10:01:49;8.10;;;7.13;;
12884;SDS011;6510;51.362;7.370;2022-09-24T10:04:39;8.15;;;7.35;;
12884;SDS011;6510;51.362;7.370;2022-09-24T10:07:13;7.82;;;7.03;;
12884;SDS011;6510;51.362;7.370;2022-09-24T10:09:41;7.93;;;6.95;;
12884;SDS011;6510;51.362;7.370;2022-09-24T10:14:41;7.65;;;6.93;;
12884;SDS011;6510;51.362;7.370;2022-09-24T10:17:15;8.02;;;6.82;;
12884;SDS011;6510;51.362;7.370;2022-09-24T10:19:43;7.88;;;7.07;;
12884;SDS011;6510;51.362;7.370;2022-09-24T10:22:29;7.80;;;7.00;;
12884;SDS011;6510;51.362;7.370;2022-09-24T10:24:56;8.10;;;7.30;;
12884;SDS011;6510;51.362;7.370;2022-09-24T10:27:32;8.70;;;7.88;;
12884;SDS011;6510;51.362;7.370;2022-09-24T10:30:03;7.82;;;7.13;;
12884;SDS011;6510;51.362;7.370;2022-09-24T10:32:56;7.75;;;6.95;;
12884;SDS011;6510;51.362;7.370;2022-09-24T10:35:33;8.88;;;7.53;;
12884;SDS011;6510;51.362;7.370;2022-09-24T10:38:12;8.57;;;7.05;;
12884;SDS011;6510;51.362;7.370;2022-09-24T10:40:43;8.27;;;6.93;;
12884;SDS011;6510;51.362;7.370;2022-09-24T10:43:14;7.93;;;6.07;;
12884;SDS011;6510;51.362;7.370;2022-09-24T10:48:38;9.13;;;7.00;;
12884;SDS011;6510;51.362;7.370;2022-09-24T10:51:12;8.60;;;7.13;;
12884;SDS011;6510;51.362;7.370;2022-09-24T10:56:40;9.83;;;7.10;;
12884;SDS011;6510;51.362;7.370;2022-09-24T11:04:54;10.90;;;7.40;;
12884;SDS011;6510;51.362;7.370;2022-09-24T11:07:33;9.20;;;7.43;;
12884;SDS011;6510;51.362;7.370;2022-09-24T11:20:37;10.67;;;8.20;;
12884;SDS011;6510;51.362;7.370;2022-09-24T11:31:11;10.50;;;9.17;;
12884;SDS011;6510;51.362;7.370;2022-09-24T11:40:10;9.80;;;7.73;;
12884;SDS011;6510;51.362;7.370;2022-09-24T11:48:29;8.07;;;6.50;;
12884;SDS011;6510;51.362;7.370;2022-09-24T11:51:17;7.57;;;6.87;;
12884;SDS011;6510;51.362;7.370;2022-09-24T11:54:02;7.73;;;6.70;;
12884;SDS011;6510;51.362;7.370;2022-09-24T11:57:19;7.60;;;6.80;;
12884;SDS011;6510;51.362;7.370;2022-09-24T11:59:52;7.10;;;6.40;;
12884;SDS011;6510;51.362;7.370;2022-09-24T12:02:37;6.90;;;6.20;;
12884;SDS011;6510;51.362;7.370;2022-09-24T12:05:13;7.80;;;6.30;;
12884;SDS011;6510;51.362;7.370;2022-09-24T12:11:04;6.60;;;5.67;;
12884;SDS011;6510;51.362;7.370;2022-09-24T12:13:58;6.77;;;6.07;;
12884;SDS011;6510;51.362;7.370;2022-09-24T12:16:31;6.87;;;6.17;;
12884;SDS011;6510;51.362;7.370;2022-09-24T12:19:02;7.80;;;6.00;;
12884;SDS011;6510;51.362;7.370;2022-09-24T12:21:33;6.70;;;6.00;;
12884;SDS011;6510;51.362;7.370;2022-09-24T12:24:08;5.97;;;5.37;;
12884;SDS011;6510;51.362;7.370;2022-09-24T12:26:45;6.07;;;5.07;;
12884;SDS011;6510;51.362;7.370;2022-09-24T12:29:22;6.10;;;5.50;;
12884;SDS011;6510;51.362;7.370;2022-09-24T12:38:22;9.47;;;7.70;;
12884;SDS011;6510;51.362;7.370;2022-09-24T12:43:44;12.40;;;8.60;;
12884;SDS011;6510;51.362;7.370;2022-09-24T12:48:58;11.30;;;8.43;;
12884;SDS011;6510;51.362;7.370;2022-09-24T12:51:32;8.97;;;7.63;;
12884;SDS011;6510;51.362;7.370;2022-09-24T12:57:59;8.23;;;7.43;;
12884;SDS011;6510;51.362;7.370;2022-09-24T13:05:54;7.70;;;6.90;;
12884;SDS011;6510;51.362;7.370;2022-09-24T13:08:24;8.33;;;6.90;;
12884;SDS011;6510;51.362;7.370;2022-09-24T13:13:22;10.30;;;8.40;;
12884;SDS011;6510;51.362;7.370;2022-09-24T13:16:00;11.37;;;10.10;;
12884;SDS011;6510;51.362;7.370;2022-09-24T13:18:28;11.80;;;10.60;;
12884;SDS011;6510;51.362;7.370;2022-09-24T13:21:02;10.00;;;8.90;;
12884;SDS011;6510;51.362;7.370;2022-09-24T13:23:31;9.13;;;7.23;;
12884;SDS011;6510;51.362;7.370;2022-09-24T13:26:07;7.63;;;6.83;;
12884;SDS011;6510;51.362;7.370;2022-09-24T13:31:21;8.87;;;6.73;;
12884;SDS011;6510;51.362;7.370;2022-09-24T13:36:43;8.40;;;7.57;;
12884;SDS011;6510;51.362;7.370;2022-09-24T13:42:04;11.70;;;10.50;;
12884;SDS011;6510;51.362;7.370;2022-09-24T13:44:41;18.80;;;15.23;;
12884;SDS011;6510;51.362;7.370;2022-09-24T13:49:49;8.63;;;7.10;;
12884;SDS011;6510;51.362;7.370;2022-09-24T13:54:57;8.93;;;7.17;;
12884;SDS011;6510;51.362;7.370;2022-09-24T13:57:41;13.20;;;10.73;;
12884;SDS011;6510;51.362;7.370;2022-09-24T14:02:42;9.07;;;7.70;;
12884;SDS011;6510;51.362;7.370;2022-09-24T14:05:16;15.90;;;12.33;;
12884;SDS011;6510;51.362;7.370;2022-09-24T14:07:53;14.07;;;11.80;;
12884;SDS011;6510;51.362;7.370;2022-09-24T14:10:26;10.33;;;9.27;;
12884;SDS011;6510;51.362;7.370;2022-09-24T14:13:01;9.73;;;8.03;;
12884;SDS011;6510;51.362;7.370;2022-09-24T14:15:32;9.60;;;8.53;;
12884;SDS011;6510;51.362;7.370;2022-09-24T14:18:00;17.37;;;14.03;;
12884;SDS011;6510;51.362;7.370;2022-09-24T14:20:27;14.50;;;12.27;;
12884;SDS011;6510;51.362;7.370;2022-09-24T14:22:56;11.90;;;10.30;;
12884;SDS011;6510;51.362;7.370;2022-09-24T14:25:29;27.43;;;20.10;;
12884;SDS011;6510;51.362;7.370;2022-09-24T14:27:58;34.90;;;23.93;;
12884;SDS011;6510;51.362;7.370;2022-09-24T14:30:26;16.03;;;13.07;;
12884;SDS011;6510;51.362;7.370;2022-09-24T14:32:57;9.60;;;8.60;;
12884;SDS011;6510;51.362;7.370;2022-09-24T14:35:30;9.37;;;8.37;;
12884;SDS011;6510;51.362;7.370;2022-09-24T14:38:02;9.30;;;8.10;;
12884;SDS011;6510;51.362;7.370;2022-09-24T14:43:37;9.47;;;8.40;;
12884;SDS011;6510;51.362;7.370;2022-09-24T14:46:14;10.33;;;9.27;;
12884;SDS011;6510;51.362;7.370;2022-09-24T14:48:41;10.27;;;9.13;;
12884;SDS011;6510;51.362;7.370;2022-09-24T14:51:24;11.67;;;10.47;;
12884;SDS011;6510;51.362;7.370;2022-09-24T14:56:33;10.03;;;8.43;;
12884;SDS011;6510;51.362;7.370;2022-09-24T14:59:00;13.97;;;9.20;;
12884;SDS011;6510;51.362;7.370;2022-09-24T15:01:30;9.57;;;8.57;;
12884;SDS011;6510;51.362;7.370;2022-09-24T15:04:04;11.60;;;9.50;;
12884;SDS011;6510;51.362;7.370;2022-09-24T15:06:43;10.67;;;9.57;;
12884;SDS011;6510;51.362;7.370;2022-09-24T15:09:29;13.70;;;11.87;;
12884;SDS011;6510;51.362;7.370;2022-09-24T15:12:05;14.00;;;12.33;;
12884;SDS011;6510;51.362;7.370;2022-09-24T15:14:33;13.27;;;11.20;;
12884;SDS011;6510;51.362;7.370;2022-09-24T15:17:18;11.67;;;10.43;;
12884;SDS011;6510;51.362;7.370;2022-09-24T15:19:46;13.30;;;10.80;;
12884;SDS011;6510;51.362;7.370;2022-09-24T15:22:12;12.47;;;10.30;;
12884;SDS011;6510;51.362;7.370;2022-09-24T15:24:37;12.33;;;10.73;;
12884;SDS011;6510;51.362;7.370;2022-09-24T15:27:04;13.97;;;10.83;;
12884;SDS011;6510;51.362;7.370;2022-09-24T15:29:38;12.37;;;10.27;;
12884;SDS011;6510;51.362;7.370;2022-09-24T15:32:09;12.27;;;10.83;;
12884;SDS011;6510;51.362;7.370;2022-09-24T15:34:39;11.13;;;9.93;;
12884;SDS011;6510;51.362;7.370;2022-09-24T15:37:04;13.97;;;12.17;;
12884;SDS011;6510;51.362;7.370;2022-09-24T15:39:33;15.47;;;12.93;;
12884;SDS011;6510;51.362;7.370;2022-09-24T15:41:59;14.67;;;12.93;;
12884;SDS011;6510;51.362;7.370;2022-09-24T15:44:24;22.40;;;15.57;;
12884;SDS011;6510;51.362;7.370;2022-09-24T15:46:50;20.50;;;17.83;;
12884;SDS011;6510;51.362;7.370;2022-09-24T15:49:19;19.70;;;16.70;;
12884;SDS011;6510;51.362;7.370;2022-09-24T15:51:50;15.97;;;13.90;;
12884;SDS011;6510;51.362;7.370;2022-09-24T15:54:19;17.60;;;15.47;;
12884;SDS011;6510;51.362;7.370;2022-09-24T15:56:45;14.73;;;13.20;;
12884;SDS011;6510;51.362;7.370;2022-09-24T15:59:16;14.23;;;12.47;;
12884;SDS011;6510;51.362;7.370;2022-09-24T16:01:43;17.67;;;13.73;;
12884;SDS011;6510;51.362;7.370;2022-09-24T16:04:10;16.40;;;13.80;;
12884;SDS011;6510;51.362;7.370;2022-09-24T16:06:36;15.97;;;13.30;;
12884;SDS011;6510;51.362;7.370;2022-09-24T16:09:02;16.53;;;14.77;;
12884;SDS011;6510;51.362;7.370;2022-09-24T16:11:29;20.00;;;16.03;;
12884;SDS011;6510;51.362;7.370;2022-09-24T16:13:55;20.30;;;15.87;;
12884;SDS011;6510;51.362;7.370;2022-09-24T16:16:21;24.60;;;17.13;;
12884;SDS011;6510;51.362;7.370;2022-09-24T16:18:46;21.67;;;16.37;;
12884;SDS011;6510;51.362;7.370;2022-09-24T16:21:12;16.63;;;14.83;;
12884;SDS011;6510;51.362;7.370;2022-09-24T16:23:38;18.90;;;15.17;;
12884;SDS011;6510;51.362;7.370;2022-09-24T16:26:03;22.93;;;17.23;;
12884;SDS011;6510;51.362;7.370;2022-09-24T16:28:29;20.33;;;16.50;;
12884;SDS011;6510;51.362;7.370;2022-09-24T16:30:55;23.37;;;18.13;;
12884;SDS011;6510;51.362;7.370;2022-09-24T16:33:21;28.33;;;21.77;;
12884;SDS011;6510;51.362;7.370;2022-09-24T16:35:47;21.13;;;17.93;;
12884;SDS011;6510;51.362;7.370;2022-09-24T16:38:12;21.43;;;18.23;;
12884;SDS011;6510;51.362;7.370;2022-09-24T16:40:38;21.33;;;18.03;;
12884;SDS011;6510;51.362;7.370;2022-09-24T16:43:04;26.30;;;19.50;;
12884;SDS011;6510;51.362;7.370;2022-09-24T16:45:30;23.23;;;18.43;;
12884;SDS011;6510;51.362;7.370;2022-09-24T16:47:56;23.33;;;19.50;;
12884;SDS011;6510;51.362;7.370;2022-09-24T16:50:22;20.30;;;17.63;;
12884;SDS011;6510;51.362;7.370;2022-09-24T16:52:48;19.33;;;16.63;;
12884;SDS011;6510;51.362;7.370;2022-09-24T16:55:16;18.67;;;16.57;;
12884;SDS011;6510;51.362;7.370;2022-09-24T16:57:42;21.70;;;18.97;;
12884;SDS011;6510;51.362;7.370;2022-09-24T17:00:07;23.53;;;18.90;;
12884;SDS011;6510;51.362;7.370;2022-09-24T17:02:34;22.37;;;17.73;;
12884;SDS011;6510;51.362;7.370;2022-09-24T17:05:03;20.37;;;16.80;;
12884;SDS011;6510;51.362;7.370;2022-09-24T17:07:29;20.17;;;17.10;;
12884;SDS011;6510;51.362;7.370;2022-09-24T17:09:55;23.87;;;20.23;;
12884;SDS011;6510;51.362;7.370;2022-09-24T17:12:41;25.53;;;20.70;;
12884;SDS011;6510;51.362;7.370;2022-09-24T17:15:08;24.10;;;19.97;;
12884;SDS011;6510;51.362;7.370;2022-09-24T17:17:34;22.83;;;20.23;;
12884;SDS011;6510;51.362;7.370;2022-09-24T17:20:00;26.40;;;20.73;;
12884;SDS011;6510;51.362;7.370;2022-09-24T17:22:25;26.60;;;21.37;;
12884;SDS011;6510;51.362;7.370;2022-09-24T17:24:52;26.87;;;21.60;;
12884;SDS011;6510;51.362;7.370;2022-09-24T17:27:18;27.43;;;22.40;;
12884;SDS011;6510;51.362;7.370;2022-09-24T17:29:43;29.30;;;23.23;;